sensor_id;sensor_type;location;lat;lon;timestamp;P1;durP1;ratioP1;P2;durP2;ratioP2
64297;SDS011;50639;53.270;7.956;2023-07-31T00:00:58;9.68;;;3.70;;
64297;SDS011;50639;53.270;7.956;2023-07-31T00:03:23;10.13;;;3.50;;
64297;SDS011;50639;53.270;7.956;2023-07-31T00:05:49;9.80;;;3.70;;
64297;SDS011;50639;53.270;7.956;2023-07-31T00:08:14;8.82;;;3.50;;
64297;SDS011;50639;53.270;7.956;2023-07-31T00:10:40;11.15;;;3.92;;
64297;SDS011;50639;53.270;7.956;2023-07-31T00:13:05;10.25;;;3.40;;
64297;SDS011;50639;53.270;7.956;2023-07-31T00:15:31;7.80;;;3.65;;
64297;SDS011;50639;53.270;7.956;2023-07-31T00:17:56;8.98;;;3.38;;
64297;SDS011;50639;53.270;7.956;2023-07-31T00:20:21;8.25;;;3.50;;
64297;SDS011;50639;53.270;7.956;2023-07-31T00:22:48;8.53;;;3.43;;
64297;SDS011;50639;53.270;7.956;2023-07-31T00:25:13;10.77;;;3.65;;
64297;SDS011;50639;53.270;7.956;2023-07-31T00:27:39;8.77;;;3.60;;
64297;SDS011;50639;53.270;7.956;2023-07-31T00:30:10;12.80;;;3.42;;
64297;SDS011;50639;53.270;7.956;2023-07-31T00:32:36;9.30;;;3.35;;
64297;SDS011;50639;53.270;7.956;2023-07-31T00:35:01;7.03;;;3.05;;
64297;SDS011;50639;53.270;7.956;2023-07-31T00:37:30;10.80;;;3.35;;
64297;SDS011;50639;53.270;7.956;2023-07-31T00:39:55;6.13;;;2.83;;
64297;SDS011;50639;53.270;7.956;2023-07-31T00:42:21;8.93;;;3.28;;
64297;SDS011;50639;53.270;7.956;2023-07-31T00:44:47;6.03;;;2.73;;
64297;SDS011;50639;53.270;7.956;2023-07-31T00:47:14;9.20;;;3.22;;
64297;SDS011;50639;53.270;7.956;2023-07-31T00:49:40;5.15;;;2.70;;
64297;SDS011;50639;53.270;7.956;2023-07-31T00:52:05;6.15;;;2.55;;
64297;SDS011;50639;53.270;7.956;2023-07-31T00:54:31;8.27;;;3.22;;
64297;SDS011;50639;53.270;7.956;2023-07-31T00:56:59;6.53;;;2.70;;
64297;SDS011;50639;53.270;7.956;2023-07-31T00:59:25;6.60;;;3.03;;
64297;SDS011;50639;53.270;7.956;2023-07-31T01:01:50;6.47;;;2.95;;
64297;SDS011;50639;53.270;7.956;2023-07-31T01:04:17;7.47;;;2.90;;
64297;SDS011;50639;53.270;7.956;2023-07-31T01:11:56;5.90;;;2.83;;
64297;SDS011;50639;53.270;7.956;2023-07-31T01:14:23;7.68;;;3.28;;
64297;SDS011;50639;53.270;7.956;2023-07-31T01:16:48;5.32;;;2.60;;
64297;SDS011;50639;53.270;7.956;2023-07-31T01:19:14;3.58;;;2.50;;
64297;SDS011;50639;53.270;7.956;2023-07-31T01:24:35;4.85;;;2.70;;
64297;SDS011;50639;53.270;7.956;2023-07-31T01:27:26;10.68;;;2.95;;
64297;SDS011;50639;53.270;7.956;2023-07-31T01:30:00;5.45;;;2.55;;
64297;SDS011;50639;53.270;7.956;2023-07-31T01:32:36;5.63;;;2.90;;
64297;SDS011;50639;53.270;7.956;2023-07-31T01:35:05;5.68;;;2.88;;
64297;SDS011;50639;53.270;7.956;2023-07-31T01:37:31;5.97;;;2.72;;
64297;SDS011;50639;53.270;7.956;2023-07-31T01:39:57;7.07;;;2.83;;
64297;SDS011;50639;53.270;7.956;2023-07-31T01:42:23;3.65;;;2.70;;
64297;SDS011;50639;53.270;7.956;2023-07-31T01:44:49;5.50;;;2.92;;
64297;SDS011;50639;53.270;7.956;2023-07-31T01:47:15;4.95;;;2.55;;
64297;SDS011;50639;53.270;7.956;2023-07-31T01:49:40;4.93;;;2.67;;
64297;SDS011;50639;53.270;7.956;2023-07-31T01:52:06;6.68;;;2.80;;
64297;SDS011;50639;53.270;7.956;2023-07-31T01:54:31;4.53;;;2.50;;
64297;SDS011;50639;53.270;7.956;2023-07-31T01:56:57;4.20;;;2.80;;
64297;SDS011;50639;53.270;7.956;2023-07-31T01:59:23;5.38;;;2.65;;
64297;SDS011;50639;53.270;7.956;2023-07-31T02:01:48;4.45;;;2.70;;
64297;SDS011;50639;53.270;7.956;2023-07-31T02:04:14;4.47;;;2.40;;
64297;SDS011;50639;53.270;7.956;2023-07-31T02:06:43;4.60;;;2.50;;
64297;SDS011;50639;53.270;7.956;2023-07-31T02:09:08;3.47;;;2.65;;
64297;SDS011;50639;53.270;7.956;2023-07-31T02:11:34;5.47;;;2.72;;
64297;SDS011;50639;53.270;7.956;2023-07-31T02:13:59;5.68;;;2.75;;
64297;SDS011;50639;53.270;7.956;2023-07-31T02:16:24;5.65;;;2.65;;
64297;SDS011;50639;53.270;7.956;2023-07-31T02:18:50;4.72;;;2.83;;
64297;SDS011;50639;53.270;7.956;2023-07-31T02:21:15;7.15;;;2.70;;
64297;SDS011;50639;53.270;7.956;2023-07-31T02:23:41;4.50;;;2.70;;
64297;SDS011;50639;53.270;7.956;2023-07-31T02:26:07;5.28;;;2.65;;
64297;SDS011;50639;53.270;7.956;2023-07-31T02:28:32;3.95;;;2.30;;
64297;SDS011;50639;53.270;7.956;2023-07-31T02:30:58;3.78;;;2.65;;
64297;SDS011;50639;53.270;7.956;2023-07-31T02:33:24;4.88;;;2.45;;
64297;SDS011;50639;53.270;7.956;2023-07-31T02:35:50;4.90;;;2.55;;
64297;SDS011;50639;53.270;7.956;2023-07-31T02:38:16;4.07;;;2.65;;
64297;SDS011;50639;53.270;7.956;2023-07-31T02:40:42;3.90;;;2.45;;
64297;SDS011;50639;53.270;7.956;2023-07-31T02:43:07;4.07;;;2.80;;
64297;SDS011;50639;53.270;7.956;2023-07-31T02:45:33;2.95;;;2.33;;
64297;SDS011;50639;53.270;7.956;2023-07-31T02:48:00;2.83;;;2.28;;
64297;SDS011;50639;53.270;7.956;2023-07-31T02:50:26;6.40;;;2.67;;
64297;SDS011;50639;53.270;7.956;2023-07-31T02:52:52;4.57;;;2.60;;
64297;SDS011;50639;53.270;7.956;2023-07-31T02:55:18;3.55;;;2.50;;
64297;SDS011;50639;53.270;7.956;2023-07-31T02:57:43;4.22;;;2.35;;
64297;SDS011;50639;53.270;7.956;2023-07-31T03:00:09;4.30;;;2.42;;
64297;SDS011;50639;53.270;7.956;2023-07-31T03:02:35;5.10;;;2.55;;
64297;SDS011;50639;53.270;7.956;2023-07-31T03:05:01;2.50;;;2.28;;
64297;SDS011;50639;53.270;7.956;2023-07-31T03:07:26;4.00;;;2.42;;
64297;SDS011;50639;53.270;7.956;2023-07-31T03:09:55;3.50;;;2.15;;
64297;SDS011;50639;53.270;7.956;2023-07-31T03:12:26;5.53;;;2.53;;
64297;SDS011;50639;53.270;7.956;2023-07-31T03:14:57;3.60;;;2.40;;
64297;SDS011;50639;53.270;7.956;2023-07-31T03:17:23;5.43;;;2.47;;
64297;SDS011;50639;53.270;7.956;2023-07-31T03:19:50;3.63;;;2.10;;
64297;SDS011;50639;53.270;7.956;2023-07-31T03:22:18;2.40;;;2.08;;
64297;SDS011;50639;53.270;7.956;2023-07-31T03:24:51;3.65;;;2.20;;
64297;SDS011;50639;53.270;7.956;2023-07-31T03:27:18;2.90;;;2.28;;
64297;SDS011;50639;53.270;7.956;2023-07-31T03:29:50;2.67;;;2.10;;
64297;SDS011;50639;53.270;7.956;2023-07-31T03:32:18;3.33;;;2.35;;
64297;SDS011;50639;53.270;7.956;2023-07-31T03:34:49;3.22;;;2.42;;
64297;SDS011;50639;53.270;7.956;2023-07-31T03:37:17;4.72;;;2.28;;
64297;SDS011;50639;53.270;7.956;2023-07-31T03:39:52;2.88;;;2.30;;
64297;SDS011;50639;53.270;7.956;2023-07-31T03:42:19;3.67;;;2.38;;
64297;SDS011;50639;53.270;7.956;2023-07-31T03:44:53;6.15;;;2.40;;
64297;SDS011;50639;53.270;7.956;2023-07-31T03:47:22;2.67;;;2.33;;
64297;SDS011;50639;53.270;7.956;2023-07-31T03:50:16;2.97;;;2.00;;
64297;SDS011;50639;53.270;7.956;2023-07-31T03:52:42;3.92;;;2.20;;
64297;SDS011;50639;53.270;7.956;2023-07-31T03:55:08;3.83;;;2.30;;
64297;SDS011;50639;53.270;7.956;2023-07-31T04:00:43;2.65;;;1.83;;
64297;SDS011;50639;53.270;7.956;2023-07-31T04:03:09;4.22;;;1.90;;
64297;SDS011;50639;53.270;7.956;2023-07-31T04:05:37;2.60;;;1.83;;
64297;SDS011;50639;53.270;7.956;2023-07-31T04:08:03;2.00;;;1.88;;
64297;SDS011;50639;53.270;7.956;2023-07-31T04:10:31;1.77;;;1.67;;
64297;SDS011;50639;53.270;7.956;2023-07-31T04:12:58;1.80;;;1.70;;
64297;SDS011;50639;53.270;7.956;2023-07-31T04:15:24;1.92;;;1.80;;
64297;SDS011;50639;53.270;7.956;2023-07-31T04:17:49;1.90;;;1.70;;
64297;SDS011;50639;53.270;7.956;2023-07-31T04:20:15;2.90;;;1.63;;
64297;SDS011;50639;53.270;7.956;2023-07-31T04:22:41;2.13;;;1.77;;
64297;SDS011;50639;53.270;7.956;2023-07-31T04:25:06;1.77;;;1.67;;
64297;SDS011;50639;53.270;7.956;2023-07-31T04:27:32;1.38;;;1.38;;
64297;SDS011;50639;53.270;7.956;2023-07-31T04:29:57;1.88;;;1.38;;
64297;SDS011;50639;53.270;7.956;2023-07-31T04:32:23;1.98;;;1.50;;
64297;SDS011;50639;53.270;7.956;2023-07-31T04:34:48;2.00;;;1.52;;
64297;SDS011;50639;53.270;7.956;2023-07-31T04:37:14;1.77;;;1.58;;
64297;SDS011;50639;53.270;7.956;2023-07-31T04:39:39;1.60;;;1.50;;
64297;SDS011;50639;53.270;7.956;2023-07-31T04:42:05;1.60;;;1.50;;
64297;SDS011;50639;53.270;7.956;2023-07-31T04:44:30;1.35;;;1.30;;
64297;SDS011;50639;53.270;7.956;2023-07-31T04:46:56;1.50;;;1.40;;
64297;SDS011;50639;53.270;7.956;2023-07-31T04:49:21;3.08;;;1.33;;
64297;SDS011;50639;53.270;7.956;2023-07-31T04:51:47;1.17;;;1.17;;
64297;SDS011;50639;53.270;7.956;2023-07-31T04:54:13;1.80;;;1.45;;
64297;SDS011;50639;53.270;7.956;2023-07-31T04:56:40;1.50;;;1.40;;
64297;SDS011;50639;53.270;7.956;2023-07-31T04:59:06;1.40;;;1.30;;
64297;SDS011;50639;53.270;7.956;2023-07-31T05:01:32;1.48;;;1.40;;
64297;SDS011;50639;53.270;7.956;2023-07-31T05:03:57;1.10;;;1.10;;
64297;SDS011;50639;53.270;7.956;2023-07-31T05:06:23;1.50;;;1.40;;
64297;SDS011;50639;53.270;7.956;2023-07-31T05:08:48;1.40;;;1.30;;
64297;SDS011;50639;53.270;7.956;2023-07-31T05:11:14;6.05;;;4.05;;
64297;SDS011;50639;53.270;7.956;2023-07-31T05:13:39;2.67;;;1.80;;
64297;SDS011;50639;53.270;7.956;2023-07-31T05:16:04;1.65;;;1.40;;
64297;SDS011;50639;53.270;7.956;2023-07-31T05:18:30;5.00;;;2.17;;
64297;SDS011;50639;53.270;7.956;2023-07-31T05:20:55;1.17;;;1.17;;
64297;SDS011;50639;53.270;7.956;2023-07-31T05:23:21;1.20;;;1.20;;
64297;SDS011;50639;53.270;7.956;2023-07-31T05:25:46;1.40;;;1.30;;
64297;SDS011;50639;53.270;7.956;2023-07-31T05:28:12;5.32;;;1.42;;
64297;SDS011;50639;53.270;7.956;2023-07-31T05:30:38;1.23;;;1.23;;
64297;SDS011;50639;53.270;7.956;2023-07-31T05:33:04;1.35;;;1.27;;
64297;SDS011;50639;53.270;7.956;2023-07-31T05:35:30;1.30;;;1.30;;
64297;SDS011;50639;53.270;7.956;2023-07-31T05:37:55;2.63;;;1.23;;
64297;SDS011;50639;53.270;7.956;2023-07-31T05:40:21;1.30;;;1.30;;
64297;SDS011;50639;53.270;7.956;2023-07-31T05:42:46;1.65;;;1.55;;
64297;SDS011;50639;53.270;7.956;2023-07-31T05:45:12;4.22;;;1.50;;
64297;SDS011;50639;53.270;7.956;2023-07-31T05:47:39;1.50;;;1.40;;
64297;SDS011;50639;53.270;7.956;2023-07-31T05:50:04;1.85;;;1.50;;
64297;SDS011;50639;53.270;7.956;2023-07-31T05:52:31;1.80;;;1.70;;
64297;SDS011;50639;53.270;7.956;2023-07-31T05:55:09;4.53;;;2.13;;
64297;SDS011;50639;53.270;7.956;2023-07-31T05:57:35;2.58;;;2.00;;
64297;SDS011;50639;53.270;7.956;2023-07-31T06:00:02;2.75;;;2.00;;
64297;SDS011;50639;53.270;7.956;2023-07-31T06:02:30;1.70;;;1.60;;
64297;SDS011;50639;53.270;7.956;2023-07-31T06:04:59;2.22;;;1.83;;
64297;SDS011;50639;53.270;7.956;2023-07-31T06:07:26;3.17;;;2.10;;
64297;SDS011;50639;53.270;7.956;2023-07-31T06:09:51;1.95;;;1.80;;
64297;SDS011;50639;53.270;7.956;2023-07-31T06:12:16;2.65;;;2.00;;
64297;SDS011;50639;53.270;7.956;2023-07-31T06:14:44;1.75;;;1.63;;
64297;SDS011;50639;53.270;7.956;2023-07-31T06:17:09;2.13;;;1.63;;
64297;SDS011;50639;53.270;7.956;2023-07-31T06:19:35;2.17;;;1.70;;
64297;SDS011;50639;53.270;7.956;2023-07-31T06:22:01;1.95;;;1.60;;
64297;SDS011;50639;53.270;7.956;2023-07-31T06:24:27;1.60;;;1.50;;
64297;SDS011;50639;53.270;7.956;2023-07-31T06:26:54;44.00;;;34.38;;
64297;SDS011;50639;53.270;7.956;2023-07-31T06:29:22;22.10;;;17.50;;
64297;SDS011;50639;53.270;7.956;2023-07-31T06:31:48;6.72;;;4.28;;
64297;SDS011;50639;53.270;7.956;2023-07-31T06:34:15;2.58;;;2.13;;
64297;SDS011;50639;53.270;7.956;2023-07-31T06:36:41;1.60;;;1.33;;
64297;SDS011;50639;53.270;7.956;2023-07-31T06:39:08;1.80;;;1.70;;
64297;SDS011;50639;53.270;7.956;2023-07-31T06:41:34;1.60;;;1.50;;
64297;SDS011;50639;53.270;7.956;2023-07-31T06:44:05;1.25;;;1.23;;
64297;SDS011;50639;53.270;7.956;2023-07-31T06:46:34;1.38;;;1.20;;
64297;SDS011;50639;53.270;7.956;2023-07-31T06:49:00;1.13;;;1.13;;
64297;SDS011;50639;53.270;7.956;2023-07-31T06:51:26;1.10;;;1.10;;
64297;SDS011;50639;53.270;7.956;2023-07-31T06:53:52;7.95;;;1.77;;
64297;SDS011;50639;53.270;7.956;2023-07-31T06:56:19;18.13;;;1.67;;
64297;SDS011;50639;53.270;7.956;2023-07-31T06:58:46;1.38;;;0.95;;
64297;SDS011;50639;53.270;7.956;2023-07-31T07:01:13;3.80;;;1.15;;
64297;SDS011;50639;53.270;7.956;2023-07-31T07:03:39;4.75;;;1.00;;
64297;SDS011;50639;53.270;7.956;2023-07-31T07:06:05;1.83;;;1.17;;
64297;SDS011;50639;53.270;7.956;2023-07-31T07:08:30;0.80;;;0.80;;
64297;SDS011;50639;53.270;7.956;2023-07-31T07:10:56;2.55;;;0.95;;
64297;SDS011;50639;53.270;7.956;2023-07-31T07:13:21;1.38;;;1.08;;
64297;SDS011;50639;53.270;7.956;2023-07-31T07:15:48;1.20;;;1.20;;
64297;SDS011;50639;53.270;7.956;2023-07-31T07:18:14;1.25;;;1.00;;
64297;SDS011;50639;53.270;7.956;2023-07-31T07:20:39;0.93;;;0.90;;
64297;SDS011;50639;53.270;7.956;2023-07-31T07:23:05;1.55;;;1.38;;
64297;SDS011;50639;53.270;7.956;2023-07-31T07:25:31;0.88;;;0.88;;
64297;SDS011;50639;53.270;7.956;2023-07-31T07:27:56;1.02;;;1.02;;
64297;SDS011;50639;53.270;7.956;2023-07-31T07:30:22;4.88;;;1.10;;
64297;SDS011;50639;53.270;7.956;2023-07-31T07:32:48;1.40;;;1.02;;
64297;SDS011;50639;53.270;7.956;2023-07-31T07:35:14;1.50;;;1.33;;
64297;SDS011;50639;53.270;7.956;2023-07-31T07:37:39;0.90;;;0.90;;
64297;SDS011;50639;53.270;7.956;2023-07-31T07:40:05;1.45;;;1.20;;
64297;SDS011;50639;53.270;7.956;2023-07-31T07:42:31;1.30;;;1.20;;
64297;SDS011;50639;53.270;7.956;2023-07-31T07:44:58;2.50;;;1.42;;
64297;SDS011;50639;53.270;7.956;2023-07-31T07:47:25;1.83;;;1.50;;
64297;SDS011;50639;53.270;7.956;2023-07-31T07:49:50;4.47;;;1.40;;
64297;SDS011;50639;53.270;7.956;2023-07-31T07:52:16;1.95;;;1.48;;
64297;SDS011;50639;53.270;7.956;2023-07-31T07:54:41;2.72;;;2.03;;
64297;SDS011;50639;53.270;7.956;2023-07-31T07:57:06;5.15;;;2.42;;
64297;SDS011;50639;53.270;7.956;2023-07-31T07:59:32;7.53;;;3.05;;
64297;SDS011;50639;53.270;7.956;2023-07-31T08:01:57;6.95;;;2.85;;
64297;SDS011;50639;53.270;7.956;2023-07-31T08:04:23;12.43;;;4.30;;
64297;SDS011;50639;53.270;7.956;2023-07-31T08:06:51;10.93;;;4.40;;
64297;SDS011;50639;53.270;7.956;2023-07-31T08:09:16;12.20;;;4.93;;
64297;SDS011;50639;53.270;7.956;2023-07-31T08:11:42;19.23;;;6.35;;
64297;SDS011;50639;53.270;7.956;2023-07-31T08:14:07;17.42;;;5.72;;
64297;SDS011;50639;53.270;7.956;2023-07-31T08:16:33;17.70;;;6.30;;
64297;SDS011;50639;53.270;7.956;2023-07-31T08:18:59;18.25;;;6.40;;
64297;SDS011;50639;53.270;7.956;2023-07-31T08:21:24;19.70;;;7.18;;
64297;SDS011;50639;53.270;7.956;2023-07-31T08:23:50;24.02;;;7.50;;
64297;SDS011;50639;53.270;7.956;2023-07-31T08:26:16;18.83;;;7.43;;
64297;SDS011;50639;53.270;7.956;2023-07-31T08:28:43;18.50;;;7.57;;
64297;SDS011;50639;53.270;7.956;2023-07-31T08:31:10;19.77;;;7.75;;
64297;SDS011;50639;53.270;7.956;2023-07-31T08:33:36;20.92;;;8.10;;
64297;SDS011;50639;53.270;7.956;2023-07-31T08:36:02;17.52;;;7.30;;
64297;SDS011;50639;53.270;7.956;2023-07-31T08:38:30;22.25;;;8.50;;
64297;SDS011;50639;53.270;7.956;2023-07-31T08:40:56;23.58;;;8.85;;
64297;SDS011;50639;53.270;7.956;2023-07-31T08:43:23;19.30;;;7.90;;
64297;SDS011;50639;53.270;7.956;2023-07-31T08:45:51;23.40;;;8.55;;
64297;SDS011;50639;53.270;7.956;2023-07-31T08:48:17;50.53;;;36.10;;
64297;SDS011;50639;53.270;7.956;2023-07-31T08:53:10;20.05;;;7.35;;
64297;SDS011;50639;53.270;7.956;2023-07-31T08:55:36;16.55;;;6.65;;
64297;SDS011;50639;53.270;7.956;2023-07-31T08:58:04;15.50;;;7.35;;
64297;SDS011;50639;53.270;7.956;2023-07-31T09:00:31;14.38;;;6.43;;
64297;SDS011;50639;53.270;7.956;2023-07-31T09:02:59;24.13;;;6.90;;
64297;SDS011;50639;53.270;7.956;2023-07-31T09:05:28;16.60;;;6.25;;
64297;SDS011;50639;53.270;7.956;2023-07-31T09:07:54;14.73;;;6.45;;
64297;SDS011;50639;53.270;7.956;2023-07-31T09:10:23;18.48;;;7.05;;
64297;SDS011;50639;53.270;7.956;2023-07-31T09:12:50;16.10;;;6.43;;
64297;SDS011;50639;53.270;7.956;2023-07-31T09:15:17;13.77;;;5.22;;
64297;SDS011;50639;53.270;7.956;2023-07-31T09:17:43;13.77;;;5.77;;
64297;SDS011;50639;53.270;7.956;2023-07-31T09:20:19;13.10;;;5.20;;
64297;SDS011;50639;53.270;7.956;2023-07-31T09:25:14;10.50;;;4.72;;
64297;SDS011;50639;53.270;7.956;2023-07-31T09:27:49;12.55;;;5.40;;
64297;SDS011;50639;53.270;7.956;2023-07-31T09:30:43;12.60;;;5.90;;
64297;SDS011;50639;53.270;7.956;2023-07-31T09:33:10;12.77;;;4.82;;
64297;SDS011;50639;53.270;7.956;2023-07-31T09:35:36;10.80;;;4.68;;
64297;SDS011;50639;53.270;7.956;2023-07-31T09:38:03;10.40;;;4.80;;
64297;SDS011;50639;53.270;7.956;2023-07-31T09:40:32;13.65;;;5.68;;
64297;SDS011;50639;53.270;7.956;2023-07-31T09:43:02;12.43;;;4.50;;
64297;SDS011;50639;53.270;7.956;2023-07-31T09:45:29;11.20;;;4.60;;
64297;SDS011;50639;53.270;7.956;2023-07-31T09:47:55;11.87;;;4.40;;
64297;SDS011;50639;53.270;7.956;2023-07-31T09:50:23;12.20;;;4.65;;
64297;SDS011;50639;53.270;7.956;2023-07-31T09:52:50;11.38;;;5.00;;
64297;SDS011;50639;53.270;7.956;2023-07-31T09:55:17;11.68;;;4.70;;
64297;SDS011;50639;53.270;7.956;2023-07-31T09:57:45;8.45;;;4.32;;
64297;SDS011;50639;53.270;7.956;2023-07-31T10:00:12;10.85;;;4.30;;
64297;SDS011;50639;53.270;7.956;2023-07-31T10:02:40;12.70;;;4.43;;
64297;SDS011;50639;53.270;7.956;2023-07-31T10:05:10;10.75;;;4.00;;
64297;SDS011;50639;53.270;7.956;2023-07-31T10:07:39;8.75;;;4.05;;
64297;SDS011;50639;53.270;7.956;2023-07-31T10:10:08;10.15;;;4.10;;
64297;SDS011;50639;53.270;7.956;2023-07-31T10:12:34;8.07;;;3.80;;
64297;SDS011;50639;53.270;7.956;2023-07-31T10:15:01;8.30;;;3.90;;
64297;SDS011;50639;53.270;7.956;2023-07-31T10:17:27;6.90;;;3.53;;
64297;SDS011;50639;53.270;7.956;2023-07-31T10:22:21;5.85;;;3.40;;
64297;SDS011;50639;53.270;7.956;2023-07-31T10:24:47;8.38;;;3.70;;
64297;SDS011;50639;53.270;7.956;2023-07-31T10:27:14;6.78;;;3.60;;
64297;SDS011;50639;53.270;7.956;2023-07-31T10:29:41;6.70;;;3.58;;
64297;SDS011;50639;53.270;7.956;2023-07-31T10:32:12;8.07;;;3.53;;
64297;SDS011;50639;53.270;7.956;2023-07-31T10:34:38;6.22;;;3.50;;
64297;SDS011;50639;53.270;7.956;2023-07-31T10:37:24;7.10;;;3.35;;
64297;SDS011;50639;53.270;7.956;2023-07-31T10:39:58;7.80;;;3.40;;
64297;SDS011;50639;53.270;7.956;2023-07-31T10:42:35;6.07;;;3.22;;
64297;SDS011;50639;53.270;7.956;2023-07-31T10:45:03;7.85;;;3.47;;
64297;SDS011;50639;53.270;7.956;2023-07-31T10:47:30;7.97;;;3.20;;
64297;SDS011;50639;53.270;7.956;2023-07-31T10:50:12;4.93;;;2.70;;
64297;SDS011;50639;53.270;7.956;2023-07-31T10:52:50;3.92;;;2.53;;
64297;SDS011;50639;53.270;7.956;2023-07-31T10:58:11;5.05;;;2.95;;
64297;SDS011;50639;53.270;7.956;2023-07-31T11:00:38;7.97;;;3.35;;
64297;SDS011;50639;53.270;7.956;2023-07-31T11:03:08;7.63;;;5.05;;
64297;SDS011;50639;53.270;7.956;2023-07-31T11:08:24;5.03;;;2.17;;
64297;SDS011;50639;53.270;7.956;2023-07-31T11:11:06;3.88;;;2.13;;
64297;SDS011;50639;53.270;7.956;2023-07-31T11:16:14;3.33;;;2.20;;
64297;SDS011;50639;53.270;7.956;2023-07-31T11:18:41;4.82;;;1.90;;
64297;SDS011;50639;53.270;7.956;2023-07-31T11:21:11;3.25;;;1.98;;
64297;SDS011;50639;53.270;7.956;2023-07-31T11:23:38;1.95;;;1.75;;
64297;SDS011;50639;53.270;7.956;2023-07-31T11:26:05;1.60;;;1.50;;
64297;SDS011;50639;53.270;7.956;2023-07-31T11:28:32;1.77;;;1.67;;
64297;SDS011;50639;53.270;7.956;2023-07-31T11:33:25;2.35;;;1.50;;
64297;SDS011;50639;53.270;7.956;2023-07-31T11:35:51;1.60;;;1.50;;
64297;SDS011;50639;53.270;7.956;2023-07-31T11:38:26;1.40;;;1.30;;
64297;SDS011;50639;53.270;7.956;2023-07-31T11:40:55;1.30;;;1.30;;
64297;SDS011;50639;53.270;7.956;2023-07-31T11:43:23;1.70;;;1.60;;
64297;SDS011;50639;53.270;7.956;2023-07-31T11:45:50;1.50;;;1.40;;
64297;SDS011;50639;53.270;7.956;2023-07-31T11:50:59;3.38;;;1.60;;
64297;SDS011;50639;53.270;7.956;2023-07-31T11:56:10;1.42;;;1.40;;
64297;SDS011;50639;53.270;7.956;2023-07-31T11:58:39;3.20;;;1.40;;
64297;SDS011;50639;53.270;7.956;2023-07-31T12:01:08;1.63;;;1.52;;
64297;SDS011;50639;53.270;7.956;2023-07-31T12:03:34;2.35;;;1.52;;
64297;SDS011;50639;53.270;7.956;2023-07-31T12:06:00;1.92;;;1.38;;
64297;SDS011;50639;53.270;7.956;2023-07-31T12:08:26;1.58;;;1.48;;
64297;SDS011;50639;53.270;7.956;2023-07-31T12:10:53;3.15;;;1.80;;
64297;SDS011;50639;53.270;7.956;2023-07-31T12:15:53;2.47;;;1.70;;
64297;SDS011;50639;53.270;7.956;2023-07-31T12:18:21;1.90;;;1.80;;
64297;SDS011;50639;53.270;7.956;2023-07-31T12:20:48;2.47;;;1.77;;
64297;SDS011;50639;53.270;7.956;2023-07-31T12:23:20;2.13;;;1.80;;
64297;SDS011;50639;53.270;7.956;2023-07-31T12:26:07;3.60;;;1.90;;
64297;SDS011;50639;53.270;7.956;2023-07-31T12:28:53;2.17;;;1.90;;
64297;SDS011;50639;53.270;7.956;2023-07-31T12:31:21;2.13;;;1.90;;
64297;SDS011;50639;53.270;7.956;2023-07-31T12:36:20;2.05;;;1.85;;
64297;SDS011;50639;53.270;7.956;2023-07-31T12:38:47;1.75;;;1.65;;
64297;SDS011;50639;53.270;7.956;2023-07-31T12:41:14;1.70;;;1.60;;
64297;SDS011;50639;53.270;7.956;2023-07-31T12:43:40;4.00;;;1.80;;
64297;SDS011;50639;53.270;7.956;2023-07-31T12:46:07;3.03;;;1.80;;
64297;SDS011;50639;53.270;7.956;2023-07-31T12:48:33;1.83;;;1.70;;
64297;SDS011;50639;53.270;7.956;2023-07-31T12:51:00;2.33;;;2.13;;
64297;SDS011;50639;53.270;7.956;2023-07-31T12:53:26;3.10;;;2.20;;
64297;SDS011;50639;53.270;7.956;2023-07-31T12:55:52;2.63;;;2.33;;
64297;SDS011;50639;53.270;7.956;2023-07-31T12:58:18;3.80;;;2.20;;
64297;SDS011;50639;53.270;7.956;2023-07-31T13:00:43;3.38;;;2.00;;
64297;SDS011;50639;53.270;7.956;2023-07-31T13:03:11;3.22;;;2.00;;
64297;SDS011;50639;53.270;7.956;2023-07-31T13:05:38;3.80;;;1.70;;
64297;SDS011;50639;53.270;7.956;2023-07-31T13:08:05;5.13;;;1.77;;
64297;SDS011;50639;53.270;7.956;2023-07-31T13:10:32;2.10;;;1.92;;
64297;SDS011;50639;53.270;7.956;2023-07-31T13:12:58;1.90;;;1.63;;
64297;SDS011;50639;53.270;7.956;2023-07-31T13:15:23;1.77;;;1.30;;
64297;SDS011;50639;53.270;7.956;2023-07-31T13:17:50;2.75;;;1.65;;
64297;SDS011;50639;53.270;7.956;2023-07-31T13:20:18;1.35;;;1.35;;
64297;SDS011;50639;53.270;7.956;2023-07-31T13:22:46;1.55;;;1.30;;
64297;SDS011;50639;53.270;7.956;2023-07-31T13:25:12;2.03;;;1.50;;
64297;SDS011;50639;53.270;7.956;2023-07-31T13:27:41;2.40;;;1.50;;
64297;SDS011;50639;53.270;7.956;2023-07-31T13:30:07;3.33;;;1.40;;
64297;SDS011;50639;53.270;7.956;2023-07-31T13:32:36;1.17;;;1.17;;
64297;SDS011;50639;53.270;7.956;2023-07-31T13:35:05;4.97;;;1.20;;
64297;SDS011;50639;53.270;7.956;2023-07-31T13:37:32;1.30;;;1.30;;
64297;SDS011;50639;53.270;7.956;2023-07-31T13:39:58;1.20;;;1.20;;
64297;SDS011;50639;53.270;7.956;2023-07-31T13:42:25;1.67;;;1.25;;
64297;SDS011;50639;53.270;7.956;2023-07-31T13:44:51;1.35;;;1.25;;
64297;SDS011;50639;53.270;7.956;2023-07-31T13:49:43;1.45;;;1.40;;
64297;SDS011;50639;53.270;7.956;2023-07-31T13:52:10;1.20;;;1.20;;
64297;SDS011;50639;53.270;7.956;2023-07-31T13:54:36;1.60;;;1.50;;
64297;SDS011;50639;53.270;7.956;2023-07-31T13:57:04;1.55;;;1.30;;
64297;SDS011;50639;53.270;7.956;2023-07-31T13:59:38;10.32;;;1.38;;
64297;SDS011;50639;53.270;7.956;2023-07-31T14:02:07;5.45;;;1.20;;
64297;SDS011;50639;53.270;7.956;2023-07-31T14:04:37;1.40;;;1.30;;
64297;SDS011;50639;53.270;7.956;2023-07-31T14:07:03;1.92;;;1.65;;
64297;SDS011;50639;53.270;7.956;2023-07-31T14:09:30;4.57;;;1.10;;
64297;SDS011;50639;53.270;7.956;2023-07-31T14:11:55;1.75;;;1.20;;
64297;SDS011;50639;53.270;7.956;2023-07-31T14:16:50;1.08;;;1.05;;
64297;SDS011;50639;53.270;7.956;2023-07-31T14:19:18;0.93;;;0.93;;
64297;SDS011;50639;53.270;7.956;2023-07-31T14:21:43;2.33;;;1.25;;
64297;SDS011;50639;53.270;7.956;2023-07-31T14:24:10;1.00;;;1.00;;
64297;SDS011;50639;53.270;7.956;2023-07-31T14:26:36;3.03;;;1.10;;
64297;SDS011;50639;53.270;7.956;2023-07-31T14:29:01;1.52;;;1.30;;
64297;SDS011;50639;53.270;7.956;2023-07-31T14:31:27;1.30;;;1.20;;
64297;SDS011;50639;53.270;7.956;2023-07-31T14:33:53;1.42;;;1.33;;
64297;SDS011;50639;53.270;7.956;2023-07-31T14:36:18;2.38;;;1.30;;
64297;SDS011;50639;53.270;7.956;2023-07-31T14:38:44;1.45;;;1.35;;
64297;SDS011;50639;53.270;7.956;2023-07-31T14:41:10;4.10;;;1.60;;
64297;SDS011;50639;53.270;7.956;2023-07-31T14:43:37;3.33;;;1.85;;
64297;SDS011;50639;53.270;7.956;2023-07-31T14:46:03;3.15;;;1.80;;
64297;SDS011;50639;53.270;7.956;2023-07-31T14:48:30;3.72;;;1.85;;
64297;SDS011;50639;53.270;7.956;2023-07-31T14:50:56;6.28;;;2.00;;
64297;SDS011;50639;53.270;7.956;2023-07-31T14:53:22;2.10;;;1.75;;
64297;SDS011;50639;53.270;7.956;2023-07-31T14:55:49;2.30;;;1.80;;
64297;SDS011;50639;53.270;7.956;2023-07-31T14:58:15;3.72;;;1.85;;
64297;SDS011;50639;53.270;7.956;2023-07-31T15:00:42;3.90;;;1.80;;
64297;SDS011;50639;53.270;7.956;2023-07-31T15:03:09;3.57;;;2.00;;
64297;SDS011;50639;53.270;7.956;2023-07-31T15:05:35;1.98;;;1.50;;
64297;SDS011;50639;53.270;7.956;2023-07-31T15:08:00;2.30;;;1.58;;
64297;SDS011;50639;53.270;7.956;2023-07-31T15:10:26;4.88;;;3.03;;
64297;SDS011;50639;53.270;7.956;2023-07-31T15:12:52;4.57;;;1.73;;
64297;SDS011;50639;53.270;7.956;2023-07-31T15:15:18;3.70;;;1.90;;
64297;SDS011;50639;53.270;7.956;2023-07-31T15:17:46;4.63;;;1.95;;
64297;SDS011;50639;53.270;7.956;2023-07-31T15:20:11;4.32;;;2.10;;
64297;SDS011;50639;53.270;7.956;2023-07-31T15:22:37;3.10;;;1.90;;
64297;SDS011;50639;53.270;7.956;2023-07-31T15:25:03;3.38;;;1.90;;
64297;SDS011;50639;53.270;7.956;2023-07-31T15:27:29;5.80;;;2.00;;
64297;SDS011;50639;53.270;7.956;2023-07-31T15:29:56;5.35;;;2.22;;